createdAt,value
2018-02-14T00:00:04.057Z,1006.91
2018-02-14T00:01:04.029Z,1006.89
2018-02-14T00:02:04.005Z,1006.90
2018-02-14T00:03:03.982Z,1006.89
2018-02-14T00:04:03.962Z,1006.94
2018-02-14T00:05:03.942Z,1006.95
2018-02-14T00:06:03.911Z,1006.96
2018-02-14T00:07:03.893Z,1006.95
2018-02-14T00:08:03.868Z,1006.95
2018-02-14T00:09:03.842Z,1006.96
2018-02-14T00:10:03.825Z,1006.93
2018-02-14T00:11:03.799Z,1006.97
2018-02-14T00:12:03.773Z,1006.98
2018-02-14T00:13:03.748Z,1007.01
2018-02-14T00:14:03.725Z,1007.01
2018-02-14T00:15:03.711Z,1007.01
2018-02-14T00:16:03.680Z,1007.03
2018-02-14T00:17:03.656Z,1006.99
2018-02-14T00:18:03.634Z,1007.03
2018-02-14T00:19:03.610Z,1007.00
2018-02-14T00:20:03.597Z,1007.00
2018-02-14T00:21:03.564Z,1006.97
2018-02-14T00:22:03.545Z,1006.97
2018-02-14T00:23:03.515Z,1006.94
2018-02-14T00:24:03.500Z,1006.98
2018-02-14T00:25:03.469Z,1006.99
2018-02-14T00:26:03.450Z,1006.98
2018-02-14T00:27:03.436Z,1006.96
2018-02-14T00:28:03.400Z,1006.95
2018-02-14T00:29:03.378Z,1007.00
2018-02-14T00:30:03.353Z,1006.99
2018-02-14T00:31:03.330Z,1006.97
2018-02-14T00:32:03.308Z,1006.94
2018-02-14T00:33:03.289Z,1006.95
2018-02-14T00:34:03.260Z,1006.93
2018-02-14T00:35:03.243Z,1006.96
2018-02-14T00:36:03.210Z,1006.95
2018-02-14T00:37:03.189Z,1006.97
2018-02-14T00:38:03.161Z,1007.00
2018-02-14T00:39:03.139Z,1006.97
2018-02-14T00:40:03.122Z,1006.96
2018-02-14T00:41:03.099Z,1006.99
2018-02-14T00:42:03.068Z,1006.99
2018-02-14T00:43:03.049Z,1007.01
2018-02-14T00:44:03.019Z,1007.02
2018-02-14T00:45:03.000Z,1007.06
2018-02-14T00:46:02.971Z,1007.06
2018-02-14T00:47:02.948Z,1007.04
2018-02-14T00:48:02.934Z,1007.08
2018-02-14T00:49:02.900Z,1007.07
2018-02-14T00:50:02.875Z,1007.08
2018-02-14T00:51:02.856Z,1007.11
2018-02-14T00:52:02.829Z,1007.06
2018-02-14T00:53:02.806Z,1007.13
2018-02-14T00:54:02.788Z,1007.13
2018-02-14T00:55:02.759Z,1007.11
2018-02-14T00:56:02.739Z,1007.14
2018-02-14T00:57:02.708Z,1007.15
2018-02-14T00:58:02.688Z,1007.16
2018-02-14T00:59:02.667Z,1007.16
2018-02-14T01:00:02.640Z,1007.21
2018-02-14T01:01:02.615Z,1007.19
2018-02-14T01:02:02.589Z,1007.21
2018-02-14T01:03:02.569Z,1007.19
2018-02-14T01:04:02.543Z,1007.20
2018-02-14T01:05:02.530Z,1007.21
2018-02-14T01:06:02.495Z,1007.18
2018-02-14T01:07:02.473Z,1007.20
2018-02-14T01:08:02.450Z,1007.23
2018-02-14T01:09:02.424Z,1007.20
2018-02-14T01:10:02.450Z,1007.21
2018-02-14T01:11:02.384Z,1007.24
2018-02-14T01:12:02.393Z,1007.23
2018-02-14T01:13:02.330Z,1007.21
2018-02-14T01:14:02.374Z,1007.24
2018-02-14T01:15:02.284Z,1007.27
2018-02-14T01:16:02.358Z,1007.26
2018-02-14T01:17:02.237Z,1007.24
2018-02-14T01:18:02.273Z,1007.27
2018-02-14T01:19:02.190Z,1007.28
2018-02-14T01:20:02.245Z,1007.28
2018-02-14T01:21:02.142Z,1007.30
2018-02-14T01:22:02.169Z,1007.26
2018-02-14T01:23:02.090Z,1007.29
2018-02-14T01:24:02.067Z,1007.27
2018-02-14T01:25:02.039Z,1007.32
2018-02-14T01:26:02.021Z,1007.27
2018-02-14T01:27:02.006Z,1007.25
2018-02-14T01:28:01.972Z,1007.28
2018-02-14T01:29:01.948Z,1007.30
2018-02-14T01:30:01.931Z,1007.26
2018-02-14T01:31:01.900Z,1007.23
2018-02-14T01:32:01.881Z,1007.21
2018-02-14T01:33:01.853Z,1007.21
2018-02-14T01:34:01.828Z,1007.22
2018-02-14T01:35:01.811Z,1007.21
2018-02-14T01:36:01.780Z,1007.20
2018-02-14T01:37:01.775Z,1007.24
2018-02-14T01:38:01.742Z,1007.24
2018-02-14T01:39:01.709Z,1007.23
2018-02-14T01:40:01.681Z,1007.25
2018-02-14T01:41:01.657Z,1007.28
2018-02-14T01:42:01.634Z,1007.24
2018-02-14T01:43:01.619Z,1007.29
2018-02-14T01:44:01.591Z,1007.27
2018-02-14T01:45:01.564Z,1007.31
2018-02-14T01:46:01.540Z,1007.34
2018-02-14T01:47:01.526Z,1007.35
2018-02-14T01:48:01.492Z,1007.36
2018-02-14T01:49:01.470Z,1007.33
2018-02-14T01:50:01.442Z,1007.33
2018-02-14T01:51:01.420Z,1007.33
2018-02-14T01:52:01.394Z,1007.33
2018-02-14T01:53:01.370Z,1007.29
2018-02-14T01:54:01.357Z,1007.31
2018-02-14T01:55:01.322Z,1007.33
2018-02-14T01:56:01.298Z,1007.34
2018-02-14T01:57:01.280Z,1007.31
2018-02-14T01:58:01.251Z,1007.37
2018-02-14T01:59:01.225Z,1007.36
2018-02-14T02:00:01.200Z,1007.28
2018-02-14T02:01:01.180Z,1007.29
2018-02-14T02:02:01.160Z,1007.29
2018-02-14T02:03:01.129Z,1007.32
2018-02-14T02:04:01.111Z,1007.29
2018-02-14T02:05:01.080Z,1007.34
2018-02-14T02:06:01.061Z,1007.33
2018-02-14T02:07:01.035Z,1007.36
2018-02-14T02:08:01.011Z,1007.35
2018-02-14T02:09:00.991Z,1007.34
2018-02-14T02:10:00.995Z,1007.37
2018-02-14T02:11:00.934Z,1007.39
2018-02-14T02:12:00.916Z,1007.37
2018-02-14T02:13:00.889Z,1007.35
2018-02-14T02:14:00.866Z,1007.41
2018-02-14T02:15:00.844Z,1007.41
2018-02-14T02:16:00.816Z,1007.42
2018-02-14T02:17:00.790Z,1007.44
2018-02-14T02:18:00.770Z,1007.41
2018-02-14T02:19:00.743Z,1007.40
2018-02-14T02:20:00.721Z,1007.43
2018-02-14T02:21:00.697Z,1007.40
2018-02-14T02:22:00.676Z,1007.44
2018-02-14T02:23:00.648Z,1007.40
2018-02-14T02:24:00.619Z,1007.44
2018-02-14T02:25:00.596Z,1007.40
2018-02-14T02:26:00.576Z,1007.43
2018-02-14T02:27:00.549Z,1007.48
2018-02-14T02:28:00.527Z,1007.46
2018-02-14T02:29:00.501Z,1007.45
2018-02-14T02:30:00.482Z,1007.46
2018-02-14T02:31:00.450Z,1007.40
2018-02-14T02:32:00.428Z,1007.40
2018-02-14T02:33:00.459Z,1007.39
2018-02-14T02:34:00.380Z,1007.42
2018-02-14T02:35:00.404Z,1007.41
2018-02-14T02:36:00.330Z,1007.41
2018-02-14T02:37:00.374Z,1007.43
2018-02-14T02:38:00.282Z,1007.42
2018-02-14T02:39:00.362Z,1007.44
2018-02-14T02:40:00.234Z,1007.47
2018-02-14T02:41:00.211Z,1007.48
2018-02-14T02:42:00.225Z,1007.47
2018-02-14T02:43:00.161Z,1007.46
2018-02-14T02:44:00.138Z,1007.46
2018-02-14T02:45:00.139Z,1007.47
2018-02-14T02:46:00.092Z,1007.49
2018-02-14T02:47:00.111Z,1007.48
2018-02-14T02:48:00.041Z,1007.52
2018-02-14T02:49:00.071Z,1007.53
2018-02-14T02:49:59.992Z,1007.53
2018-02-14T02:51:00.070Z,1007.53
2018-02-14T02:51:59.946Z,1007.58
2018-02-14T02:52:59.923Z,1007.60
2018-02-14T02:53:59.897Z,1007.58
2018-02-14T02:54:59.870Z,1007.61
2018-02-14T02:55:59.852Z,1007.62
2018-02-14T02:56:59.820Z,1007.62
2018-02-14T02:57:59.798Z,1007.64
2018-02-14T02:58:59.775Z,1007.68
2018-02-14T02:59:59.751Z,1007.67
2018-02-14T03:00:59.727Z,1007.67
2018-02-14T03:01:59.701Z,1007.67
2018-02-14T03:02:59.673Z,1007.68
2018-02-14T03:03:59.650Z,1007.62
2018-02-14T03:04:59.636Z,1007.65
2018-02-14T03:05:59.608Z,1007.66
2018-02-14T03:06:59.579Z,1007.70
2018-02-14T03:07:59.560Z,1007.68
2018-02-14T03:08:59.531Z,1007.71
2018-02-14T03:09:59.511Z,1007.74
2018-02-14T03:10:59.481Z,1007.69
2018-02-14T03:11:59.458Z,1007.72
2018-02-14T03:12:59.441Z,1007.74
2018-02-14T03:13:59.409Z,1007.73
2018-02-14T03:14:59.396Z,1007.74
2018-02-14T03:15:59.367Z,1007.75
2018-02-14T03:16:59.335Z,1007.75
2018-02-14T03:17:59.309Z,1007.77
2018-02-14T03:18:59.286Z,1007.76
2018-02-14T03:19:59.263Z,1007.76
2018-02-14T03:20:59.238Z,1007.78
2018-02-14T03:21:59.216Z,1007.78
2018-02-14T03:22:59.188Z,1007.79
2018-02-14T03:23:59.167Z,1007.77
2018-02-14T03:24:59.144Z,1007.76
2018-02-14T03:25:59.118Z,1007.78
2018-02-14T03:26:59.099Z,1007.80
2018-02-14T03:27:59.069Z,1007.78
2018-02-14T03:28:59.049Z,1007.75
2018-02-14T03:29:59.026Z,1007.77
2018-02-14T03:30:59.000Z,1007.77
2018-02-14T03:31:58.976Z,1007.76
2018-02-14T03:32:58.949Z,1007.76
2018-02-14T03:33:58.923Z,1007.74
2018-02-14T03:34:58.899Z,1007.75
2018-02-14T03:35:58.876Z,1007.76
2018-02-14T03:36:58.853Z,1007.78
2018-02-14T03:37:58.827Z,1007.79
2018-02-14T03:38:58.805Z,1007.80
2018-02-14T03:39:58.779Z,1007.84
2018-02-14T03:40:58.757Z,1007.83
2018-02-14T03:41:58.730Z,1007.91
2018-02-14T03:42:58.713Z,1007.92
2018-02-14T03:43:58.680Z,1007.92
2018-02-14T03:44:58.658Z,1007.90
2018-02-14T03:45:58.636Z,1007.94
2018-02-14T03:46:58.606Z,1007.97
2018-02-14T03:47:58.584Z,1007.95
2018-02-14T03:48:58.560Z,1007.95
2018-02-14T03:49:58.537Z,1007.98
2018-02-14T03:50:58.512Z,1008.00
2018-02-14T03:51:58.486Z,1008.00
2018-02-14T03:52:58.467Z,1008.00
2018-02-14T03:53:58.440Z,1008.03
2018-02-14T03:54:58.411Z,1008.06
2018-02-14T03:55:58.388Z,1008.11
2018-02-14T03:56:58.364Z,1008.12
2018-02-14T03:57:58.348Z,1008.13
2018-02-14T03:58:58.314Z,1008.09
2018-02-14T03:59:58.297Z,1008.09
2018-02-14T04:00:58.268Z,1008.12
2018-02-14T04:01:58.243Z,1008.08
2018-02-14T04:02:58.218Z,1008.05
2018-02-14T04:03:58.196Z,1008.11
2018-02-14T04:04:58.168Z,1008.08
2018-02-14T04:05:58.150Z,1008.10
2018-02-14T04:06:58.119Z,1008.07
2018-02-14T04:07:58.143Z,1008.07
2018-02-14T04:08:58.081Z,1008.08
2018-02-14T04:09:58.048Z,1008.07
2018-02-14T04:10:58.022Z,1008.11
2018-02-14T04:11:57.998Z,1008.09
2018-02-14T04:12:57.977Z,1008.13
2018-02-14T04:13:57.950Z,1008.13
2018-02-14T04:14:57.926Z,1008.12
2018-02-14T04:15:57.908Z,1008.12
2018-02-14T04:16:57.877Z,1008.13
2018-02-14T04:17:57.858Z,1008.19
2018-02-14T04:18:57.838Z,1008.24
2018-02-14T04:19:57.808Z,1008.23
2018-02-14T04:20:57.793Z,1008.27
2018-02-14T04:21:57.755Z,1008.32
2018-02-14T04:22:57.731Z,1008.30
2018-02-14T04:23:57.710Z,1008.32
2018-02-14T04:24:57.686Z,1008.41
2018-02-14T04:25:57.659Z,1008.42
2018-02-14T04:26:57.634Z,1008.39
2018-02-14T04:27:57.614Z,1008.42
2018-02-14T04:28:57.589Z,1008.38
2018-02-14T04:29:57.565Z,1008.39
2018-02-14T04:30:57.539Z,1008.36
2018-02-14T04:31:57.510Z,1008.37
2018-02-14T04:32:57.490Z,1008.40
2018-02-14T04:33:57.470Z,1008.46
2018-02-14T04:34:57.441Z,1008.45
2018-02-14T04:35:57.419Z,1008.45
2018-02-14T04:36:57.388Z,1008.45
2018-02-14T04:37:57.368Z,1008.45
2018-02-14T04:38:57.346Z,1008.49
2018-02-14T04:39:57.318Z,1008.47
2018-02-14T04:40:57.294Z,1008.55
2018-02-14T04:41:57.268Z,1008.54
2018-02-14T04:42:57.245Z,1008.56
2018-02-14T04:43:57.219Z,1008.56
2018-02-14T04:44:57.198Z,1008.57
2018-02-14T04:45:57.178Z,1008.56
2018-02-14T04:46:57.150Z,1008.60
2018-02-14T04:47:57.137Z,1008.59
2018-02-14T04:48:57.102Z,1008.62
2018-02-14T04:49:57.075Z,1008.62
2018-02-14T04:50:57.051Z,1008.63
2018-02-14T04:51:57.026Z,1008.65
2018-02-14T04:52:57.003Z,1008.66
2018-02-14T04:53:56.980Z,1008.71
2018-02-14T04:54:56.959Z,1008.72
2018-02-14T04:55:56.931Z,1008.74
2018-02-14T04:56:56.908Z,1008.74
2018-02-14T04:57:56.878Z,1008.73
2018-02-14T04:58:56.861Z,1008.73
2018-02-14T04:59:56.836Z,1008.72
2018-02-14T05:00:56.807Z,1008.74
2018-02-14T05:01:56.780Z,1008.70
2018-02-14T05:02:56.757Z,1008.74
2018-02-14T05:03:56.733Z,1008.70
2018-02-14T05:04:56.710Z,1008.75
2018-02-14T05:05:56.690Z,1008.70
2018-02-14T05:06:56.657Z,1008.70
2018-02-14T05:07:56.636Z,1008.72
2018-02-14T05:08:56.610Z,1008.76
2018-02-14T05:09:56.586Z,1008.78
2018-02-14T05:10:56.563Z,1008.79
2018-02-14T05:11:56.535Z,1008.74
2018-02-14T05:12:56.518Z,1008.78
2018-02-14T05:13:56.488Z,1008.75
2018-02-14T05:14:56.461Z,1008.79
2018-02-14T05:15:56.437Z,1008.77
2018-02-14T05:16:56.415Z,1008.82
2018-02-14T05:17:56.390Z,1008.78
2018-02-14T05:18:56.370Z,1008.78
2018-02-14T05:19:56.345Z,1008.78
2018-02-14T05:20:56.320Z,1008.81
2018-02-14T05:21:56.292Z,1008.81
2018-02-14T05:22:56.272Z,1008.82
2018-02-14T05:23:56.248Z,1008.83
2018-02-14T05:24:56.217Z,1008.80
2018-02-14T05:25:56.198Z,1008.82
2018-02-14T05:26:56.169Z,1008.80
2018-02-14T05:27:56.150Z,1008.82
2018-02-14T05:28:56.119Z,1008.79
2018-02-14T05:29:56.099Z,1008.77
2018-02-14T05:30:56.080Z,1008.77
2018-02-14T05:31:56.048Z,1008.81
2018-02-14T05:32:56.027Z,1008.82
2018-02-14T05:33:55.999Z,1008.80
2018-02-14T05:34:55.973Z,1008.82
2018-02-14T05:35:55.951Z,1008.83
2018-02-14T05:36:55.928Z,1008.80
2018-02-14T05:37:55.903Z,1008.81
2018-02-14T05:38:55.873Z,1008.79
2018-02-14T05:39:55.849Z,1008.84
2018-02-14T05:40:55.826Z,1008.81
2018-02-14T05:41:55.807Z,1008.85
2018-02-14T05:42:55.778Z,1008.84
2018-02-14T05:43:55.759Z,1008.85
2018-02-14T05:44:55.727Z,1008.90
2018-02-14T05:45:55.710Z,1008.84
2018-02-14T05:46:55.730Z,1008.89
2018-02-14T05:47:55.664Z,1008.88
2018-02-14T05:48:55.629Z,1008.92
2018-02-14T05:49:55.609Z,1008.93
2018-02-14T05:50:55.589Z,1008.92
2018-02-14T05:51:55.555Z,1008.93
2018-02-14T05:52:55.582Z,1008.96
2018-02-14T05:53:55.509Z,1008.96
2018-02-14T05:54:55.581Z,1008.95
2018-02-14T05:55:55.456Z,1008.95
2018-02-14T05:56:55.501Z,1008.94
2018-02-14T05:57:55.410Z,1008.95
2018-02-14T05:58:55.384Z,1008.97
2018-02-14T05:59:55.359Z,1008.95
2018-02-14T06:00:55.460Z,1008.99
2018-02-14T06:01:55.312Z,1008.98
2018-02-14T06:02:55.291Z,1008.98
2018-02-14T06:03:55.260Z,1008.96
2018-02-14T06:04:55.297Z,1008.92
2018-02-14T06:05:55.239Z,1008.94
2018-02-14T06:06:55.200Z,1008.92
2018-02-14T06:07:55.161Z,1008.89
2018-02-14T06:08:55.144Z,1008.93
2018-02-14T06:09:55.117Z,1008.89
2018-02-14T06:10:55.088Z,1008.90
2018-02-14T06:11:55.068Z,1008.88
2018-02-14T06:12:55.041Z,1008.87
2018-02-14T06:13:55.019Z,1008.90
2018-02-14T06:14:54.988Z,1008.87
2018-02-14T06:15:54.963Z,1008.90
2018-02-14T06:16:54.942Z,1008.88
2018-02-14T06:17:54.914Z,1008.94
2018-02-14T06:18:54.892Z,1008.93
2018-02-14T06:19:54.865Z,1008.93
2018-02-14T06:20:54.840Z,1008.96
2018-02-14T06:21:54.855Z,1008.98
2018-02-14T06:22:54.793Z,1008.99
2018-02-14T06:23:54.764Z,1009.01
2018-02-14T06:24:54.741Z,1009.05
2018-02-14T06:25:54.720Z,1009.04
2018-02-14T06:26:54.691Z,1009.02
2018-02-14T06:27:54.675Z,1009.03
2018-02-14T06:28:54.639Z,1009.04
2018-02-14T06:29:54.621Z,1009.03
2018-02-14T06:30:54.605Z,1009.00
2018-02-14T06:31:54.569Z,1009.07
2018-02-14T06:32:54.546Z,1009.03
2018-02-14T06:33:54.517Z,1009.03
2018-02-14T06:34:54.511Z,1009.02
2018-02-14T06:35:54.476Z,1009.04
2018-02-14T06:36:54.439Z,1009.04
2018-02-14T06:37:54.417Z,1009.03
2018-02-14T06:38:54.390Z,1009.03
2018-02-14T06:39:54.368Z,1009.07
2018-02-14T06:40:54.342Z,1009.08
2018-02-14T06:41:54.313Z,1009.10
2018-02-14T06:42:54.291Z,1009.11
2018-02-14T06:43:54.267Z,1009.07
2018-02-14T06:44:54.240Z,1009.08
2018-02-14T06:45:54.220Z,1009.08
2018-02-14T06:46:54.194Z,1009.07
2018-02-14T06:47:54.164Z,1009.04
2018-02-14T06:48:54.142Z,1009.07
2018-02-14T06:49:54.121Z,1009.03
2018-02-14T06:50:54.090Z,1009.07
2018-02-14T06:51:54.064Z,1009.09
2018-02-14T06:52:54.045Z,1009.08
2018-02-14T06:53:54.023Z,1009.08
2018-02-14T06:54:53.991Z,1009.05
2018-02-14T06:55:53.965Z,1009.06
2018-02-14T06:56:53.939Z,1009.07
2018-02-14T06:57:53.921Z,1009.07
2018-02-14T06:58:53.893Z,1009.08
2018-02-14T06:59:53.928Z,1009.11
2018-02-14T07:00:53.839Z,1009.13
2018-02-14T07:01:53.830Z,1009.14
2018-02-14T07:02:53.790Z,1009.17
2018-02-14T07:03:53.813Z,1009.17
2018-02-14T07:04:53.738Z,1009.21
2018-02-14T07:05:53.769Z,1009.20
2018-02-14T07:06:53.690Z,1009.22
2018-02-14T07:07:53.666Z,1009.23
2018-02-14T07:08:53.642Z,1009.24
2018-02-14T07:09:53.716Z,1009.21
2018-02-14T07:10:53.589Z,1009.26
2018-02-14T07:11:53.582Z,1009.24
2018-02-14T07:12:53.541Z,1009.23
2018-02-14T07:13:53.530Z,1009.25
2018-02-14T07:14:53.488Z,1009.37
2018-02-14T07:15:53.556Z,1009.37
2018-02-14T07:16:53.444Z,1009.37
2018-02-14T07:17:53.468Z,1009.33
2018-02-14T07:18:53.397Z,1009.34
2018-02-14T07:19:53.372Z,1009.49
2018-02-14T07:20:53.350Z,1009.60
2018-02-14T07:21:53.385Z,1009.71
2018-02-14T07:22:53.297Z,1009.80
2018-02-14T07:23:53.379Z,1009.82
2018-02-14T07:24:53.260Z,1009.88
2018-02-14T07:25:53.241Z,1009.89
2018-02-14T07:26:53.209Z,1009.86
2018-02-14T07:27:53.190Z,1009.83
2018-02-14T07:28:53.175Z,1009.78
2018-02-14T07:29:53.149Z,1009.70
2018-02-14T07:30:53.129Z,1009.69
2018-02-14T07:31:53.112Z,1009.67
2018-02-14T07:32:53.089Z,1009.70
2018-02-14T07:33:53.077Z,1009.69
2018-02-14T07:34:53.040Z,1009.69
2018-02-14T07:35:53.019Z,1009.70
2018-02-14T07:36:53.000Z,1009.71
2018-02-14T07:37:52.979Z,1009.71
2018-02-14T07:38:52.954Z,1009.79
2018-02-14T07:39:52.939Z,1009.90
2018-02-14T07:40:52.914Z,1010.07
2018-02-14T07:41:52.896Z,1010.22
2018-02-14T07:42:52.881Z,1010.29
2018-02-14T07:43:52.850Z,1010.36
2018-02-14T07:44:52.828Z,1010.43
2018-02-14T07:45:52.811Z,1010.45
2018-02-14T07:46:52.792Z,1010.48
2018-02-14T07:47:52.773Z,1010.55
2018-02-14T07:48:52.763Z,1010.65
2018-02-14T07:49:52.743Z,1010.70
2018-02-14T07:50:52.722Z,1010.62
2018-02-14T07:51:52.712Z,1010.53
2018-02-14T07:52:52.694Z,1010.63
2018-02-14T07:53:52.683Z,1010.75
2018-02-14T07:54:52.661Z,1010.76
2018-02-14T07:55:52.645Z,1010.78
2018-02-14T07:56:52.632Z,1010.84
2018-02-14T07:57:52.620Z,1010.85
2018-02-14T07:58:52.610Z,1010.91
2018-02-14T07:59:52.591Z,1010.95
2018-02-14T08:00:52.578Z,1010.99
2018-02-14T08:01:52.571Z,1010.95
2018-02-14T08:02:52.557Z,1011.00
2018-02-14T08:03:52.543Z,1011.01
2018-02-14T08:04:52.536Z,1011.00
2018-02-14T08:05:52.521Z,1011.05
2018-02-14T08:06:52.510Z,1011.06
2018-02-14T08:07:52.499Z,1011.05
2018-02-14T08:08:52.489Z,1011.02
2018-02-14T08:09:52.479Z,1011.04
2018-02-14T08:10:52.469Z,1010.99
2018-02-14T08:11:52.520Z,1010.99
2018-02-14T08:12:52.451Z,1011.09
2018-02-14T08:13:52.444Z,1011.13
2018-02-14T08:14:52.432Z,1011.12
2018-02-14T08:15:52.434Z,1011.17
2018-02-14T08:16:52.414Z,1011.16
2018-02-14T08:17:52.412Z,1011.09
2018-02-14T08:18:52.395Z,1011.12
2018-02-14T08:19:52.389Z,1011.21
2018-02-14T08:20:52.392Z,1011.27
2018-02-14T08:21:52.373Z,1011.22
2018-02-14T08:22:52.362Z,1011.28
2018-02-14T08:23:52.353Z,1011.35
2018-02-14T08:24:52.359Z,1011.27
2018-02-14T08:25:52.341Z,1011.20
2018-02-14T08:26:52.327Z,1011.13
2018-02-14T08:27:52.321Z,1011.16
2018-02-14T08:28:52.321Z,1011.16
2018-02-14T08:29:52.312Z,1011.07
2018-02-14T08:30:52.294Z,1011.08
2018-02-14T08:31:52.289Z,1011.24
2018-02-14T08:32:52.285Z,1011.26
2018-02-14T08:33:52.282Z,1011.18
2018-02-14T08:34:52.260Z,1011.34
2018-02-14T08:35:52.252Z,1011.45
2018-02-14T08:36:52.255Z,1011.42
2018-02-14T08:37:52.235Z,1011.41
2018-02-14T08:38:52.226Z,1011.43
2018-02-14T08:39:52.217Z,1011.47
2018-02-14T08:40:52.213Z,1011.50
2018-02-14T08:41:52.202Z,1011.68
2018-02-14T08:42:52.201Z,1011.66
2018-02-14T08:43:52.190Z,1011.45
2018-02-14T08:44:52.180Z,1011.35
2018-02-14T08:45:52.181Z,1011.29
2018-02-14T08:46:52.175Z,1011.33
2018-02-14T08:47:52.161Z,1011.51
2018-02-14T08:48:52.242Z,1011.59
2018-02-14T08:49:52.140Z,1011.63
2018-02-14T08:50:52.180Z,1011.69
2018-02-14T08:51:52.120Z,1011.71
2018-02-14T08:52:52.127Z,1011.89
2018-02-14T08:53:52.111Z,1012.01
2018-02-14T08:54:52.203Z,1012.18
2018-02-14T08:55:52.093Z,1012.16
2018-02-14T08:56:52.135Z,1012.04
2018-02-14T08:57:52.089Z,1012.02
2018-02-14T08:58:52.122Z,1011.98
2018-02-14T08:59:52.063Z,1011.95
2018-02-14T09:00:52.106Z,1011.97
2018-02-14T09:01:52.049Z,1011.98
2018-02-14T09:02:52.052Z,1012.04
2018-02-14T09:03:52.038Z,1012.01
2018-02-14T09:04:52.033Z,1011.89
2018-02-14T09:05:52.024Z,1011.86
2018-02-14T09:06:52.024Z,1011.87
2018-02-14T09:07:52.015Z,1011.87
2018-02-14T09:08:52.008Z,1011.81
2018-02-14T09:09:52.004Z,1011.84
2018-02-14T09:10:52.006Z,1011.88
2018-02-14T09:11:51.990Z,1011.89
2018-02-14T09:12:51.986Z,1011.76
2018-02-14T09:13:51.989Z,1011.82
2018-02-14T09:14:51.987Z,1011.84
2018-02-14T09:15:51.990Z,1011.79
2018-02-14T09:16:51.962Z,1011.79
2018-02-14T09:17:51.955Z,1011.79
2018-02-14T09:18:51.953Z,1011.85
2018-02-14T09:19:51.968Z,1011.81
2018-02-14T09:20:51.941Z,1011.88
2018-02-14T09:21:51.937Z,1011.86
2018-02-14T09:22:51.927Z,1011.87
2018-02-14T09:23:51.932Z,1011.87
2018-02-14T09:24:51.922Z,1011.95
2018-02-14T09:25:51.916Z,1012.01
2018-02-14T09:26:51.909Z,1012.03
2018-02-14T09:27:51.909Z,1012.04
2018-02-14T09:28:51.922Z,1012.01
2018-02-14T09:29:51.898Z,1012.07
2018-02-14T09:30:51.895Z,1012.06
2018-02-14T09:31:51.891Z,1012.08
2018-02-14T09:32:51.877Z,1012.13
2018-02-14T09:33:51.868Z,1012.13
2018-02-14T09:34:51.866Z,1012.20
2018-02-14T09:35:51.857Z,1012.23
2018-02-14T09:36:51.853Z,1012.29
2018-02-14T09:37:51.849Z,1012.28
2018-02-14T09:38:51.840Z,1012.54
2018-02-14T09:39:51.836Z,1012.95
2018-02-14T09:40:51.839Z,1013.01
2018-02-14T09:41:51.831Z,1012.60
2018-02-14T09:42:51.825Z,1012.45
2018-02-14T09:43:51.818Z,1012.55
2018-02-14T09:44:51.809Z,1012.55
2018-02-14T09:45:51.805Z,1012.62
2018-02-14T09:46:51.800Z,1012.55
2018-02-14T09:47:51.799Z,1012.35
2018-02-14T09:48:51.793Z,1012.75
2018-02-14T09:49:51.783Z,1013.57
2018-02-14T09:50:51.778Z,1012.79
2018-02-14T09:51:51.775Z,1011.84
2018-02-14T09:52:51.768Z,1011.89
2018-02-14T09:53:51.758Z,1012.02
2018-02-14T09:54:51.753Z,1012.04
2018-02-14T09:55:51.749Z,1012.05
2018-02-14T09:56:51.741Z,1012.16
2018-02-14T09:57:51.738Z,1012.19
2018-02-14T09:58:51.728Z,1012.24
2018-02-14T09:59:51.721Z,1012.33
2018-02-14T10:00:51.714Z,1012.35
2018-02-14T10:01:51.709Z,1012.60
2018-02-14T10:02:51.698Z,1013.02
2018-02-14T10:03:51.693Z,1013.28
2018-02-14T10:04:51.683Z,1013.04
2018-02-14T10:05:51.682Z,1012.99
2018-02-14T10:06:51.671Z,1013.07
2018-02-14T10:07:51.668Z,1013.03
2018-02-14T10:08:51.657Z,1013.09
2018-02-14T10:09:51.648Z,1013.08
2018-02-14T10:10:51.638Z,1012.96
2018-02-14T10:11:51.653Z,1013.01
2018-02-14T10:12:51.622Z,1012.82
2018-02-14T10:13:51.614Z,1012.66
2018-02-14T10:14:51.609Z,1012.69
2018-02-14T10:15:51.600Z,1012.63
2018-02-14T10:16:51.587Z,1012.53
2018-02-14T10:17:51.585Z,1012.55
2018-02-14T10:18:51.577Z,1012.49
2018-02-14T10:19:51.562Z,1012.42
2018-02-14T10:20:51.562Z,1012.43
2018-02-14T10:21:51.555Z,1012.43
2018-02-14T10:22:51.539Z,1012.35
2018-02-14T10:23:51.526Z,1012.41
2018-02-14T10:24:51.523Z,1012.39
2018-02-14T10:25:51.510Z,1012.42
2018-02-14T10:26:51.507Z,1012.38
2018-02-14T10:27:51.499Z,1012.35
2018-02-14T10:28:51.494Z,1012.29
2018-02-14T10:29:51.475Z,1012.23
2018-02-14T10:30:51.477Z,1012.24
2018-02-14T10:31:51.456Z,1012.15
2018-02-14T10:32:51.450Z,1012.16
2018-02-14T10:33:51.433Z,1012.10
2018-02-14T10:34:51.427Z,1012.00
2018-02-14T10:35:51.418Z,1011.94
2018-02-14T10:36:51.404Z,1011.99
2018-02-14T10:37:51.396Z,1011.96
2018-02-14T10:38:51.388Z,1011.88
2018-02-14T10:39:51.372Z,1011.93
2018-02-14T10:40:51.370Z,1011.95
2018-02-14T10:41:51.349Z,1011.95
2018-02-14T10:42:51.337Z,1011.97
2018-02-14T10:43:51.326Z,1012.02
2018-02-14T10:44:51.316Z,1012.09
2018-02-14T10:45:51.309Z,1012.08
2018-02-14T10:46:51.297Z,1012.01
2018-02-14T10:47:51.285Z,1011.97
2018-02-14T10:48:51.282Z,1011.63
2018-02-14T10:49:51.269Z,1011.34
2018-02-14T10:50:51.257Z,1011.23
2018-02-14T10:51:51.239Z,1011.09
2018-02-14T10:52:51.226Z,1011.08
2018-02-14T10:53:51.212Z,1011.04
2018-02-14T10:54:51.204Z,1011.04
2018-02-14T10:55:51.187Z,1011.01
2018-02-14T10:56:51.175Z,1011.04
2018-02-14T10:57:51.265Z,1011.02
2018-02-14T10:58:51.147Z,1010.95
2018-02-14T10:59:51.194Z,1010.95
2018-02-14T11:00:51.126Z,1011.04
2018-02-14T11:01:51.214Z,1010.94
2018-02-14T11:02:51.098Z,1010.89
2018-02-14T11:03:51.099Z,1010.86
2018-02-14T11:04:51.086Z,1010.91
2018-02-14T11:05:51.092Z,1010.88
2018-02-14T11:06:51.047Z,1010.85
2018-02-14T11:07:51.139Z,1010.89
2018-02-14T11:08:51.030Z,1010.91
2018-02-14T11:09:51.007Z,1010.91
2018-02-14T11:10:50.995Z,1010.91
2018-02-14T11:11:51.007Z,1010.87
2018-02-14T11:12:50.972Z,1010.88
2018-02-14T11:13:51.008Z,1010.90
2018-02-14T11:14:50.948Z,1010.87
2018-02-14T11:15:50.936Z,1010.92
2018-02-14T11:16:50.915Z,1010.91
2018-02-14T11:17:50.903Z,1010.83
2018-02-14T11:18:50.887Z,1010.92
2018-02-14T11:19:50.928Z,1010.87
2018-02-14T11:20:50.867Z,1010.89
2018-02-14T11:21:50.848Z,1010.85
2018-02-14T11:22:50.838Z,1010.88
2018-02-14T11:23:50.827Z,1010.89
2018-02-14T11:24:50.808Z,1010.84
2018-02-14T11:25:50.801Z,1010.85
2018-02-14T11:26:50.785Z,1010.84
2018-02-14T11:27:50.767Z,1010.88
2018-02-14T11:28:50.755Z,1010.80
2018-02-14T11:29:50.745Z,1010.94
2018-02-14T11:30:50.727Z,1010.90
2018-02-14T11:31:50.717Z,1010.83
2018-02-14T11:32:50.712Z,1010.88
2018-02-14T11:33:50.691Z,1010.88
2018-02-14T11:34:50.676Z,1010.82
2018-02-14T11:35:50.661Z,1010.87
2018-02-14T11:36:50.646Z,1010.86
2018-02-14T11:37:50.639Z,1010.79
2018-02-14T11:38:50.635Z,1010.82
2018-02-14T11:39:50.608Z,1010.79
2018-02-14T11:40:50.590Z,1010.72
2018-02-14T11:41:50.578Z,1010.78
2018-02-14T11:42:50.566Z,1010.75
2018-02-14T11:43:50.551Z,1010.73
2018-02-14T11:44:50.535Z,1010.80
2018-02-14T11:45:50.524Z,1010.71
2018-02-14T11:46:50.510Z,1010.64
2018-02-14T11:47:50.494Z,1010.67
2018-02-14T11:48:50.486Z,1010.63
2018-02-14T11:49:50.474Z,1010.61
2018-02-14T11:50:50.459Z,1010.73
2018-02-14T11:51:50.437Z,1010.63
2018-02-14T11:52:50.431Z,1010.67
2018-02-14T11:53:50.411Z,1010.68
2018-02-14T11:54:50.400Z,1010.71
2018-02-14T11:55:50.380Z,1010.76
2018-02-14T11:56:50.380Z,1010.76
2018-02-14T11:57:50.358Z,1010.68
2018-02-14T11:58:50.339Z,1010.75
2018-02-14T11:59:50.326Z,1010.71
2018-02-14T12:00:50.309Z,1010.72
2018-02-14T12:01:50.300Z,1010.74
2018-02-14T12:02:50.277Z,1010.73
2018-02-14T12:03:50.267Z,1010.76
2018-02-14T12:04:50.261Z,1010.75